createdAt,value
2019-03-26T00:01:31.511Z,99325.48
2019-03-26T00:04:05.710Z,99332.41
2019-03-26T00:06:26.744Z,99332.27
2019-03-26T00:08:53.575Z,99330.34
2019-03-26T00:11:20.325Z,99331.74
2019-03-26T00:13:47.077Z,99334.50
2019-03-26T00:16:13.909Z,99336.84
2019-03-26T00:18:40.640Z,99336.54
2019-03-26T00:21:07.490Z,99336.94
2019-03-26T00:23:34.221Z,99332.17
2019-03-26T00:26:00.971Z,99333.92
2019-03-26T00:28:27.811Z,99329.16
2019-03-26T00:30:54.654Z,99331.01
2019-03-26T00:33:21.399Z,99327.59
2019-03-26T00:35:48.126Z,99321.52
2019-03-26T00:38:14.873Z,99311.11
2019-03-26T00:40:41.608Z,99314.27
2019-03-26T00:43:08.464Z,99316.92
2019-03-26T00:45:35.305Z,99320.44
2019-03-26T00:48:02.035Z,99312.20
2019-03-26T00:50:28.775Z,99312.65
2019-03-26T00:52:55.522Z,99306.17
2019-03-26T00:55:23.237Z,99306.27
2019-03-26T00:57:50.123Z,99324.90
2019-03-26T01:00:16.865Z,99326.66
2019-03-26T01:02:43.604Z,99327.47
2019-03-26T01:05:10.452Z,99324.80
2019-03-26T01:07:37.185Z,99330.08
2019-03-26T01:10:03.931Z,99328.41
2019-03-26T01:12:31.266Z,99338.95
2019-03-26T01:14:58.120Z,99348.20
2019-03-26T01:17:24.860Z,99342.56
2019-03-26T01:19:51.714Z,99339.55
2019-03-26T01:22:18.445Z,99337.92
2019-03-26T01:24:45.293Z,99334.95
2019-03-26T01:27:12.025Z,99338.02
2019-03-26T01:29:38.879Z,99340.27
2019-03-26T01:32:05.616Z,99348.15
2019-03-26T01:34:45.197Z,99358.59
2019-03-26T01:37:00.938Z,99362.06
2019-03-26T01:39:27.674Z,99368.19
2019-03-26T01:41:54.526Z,99371.96
2019-03-26T01:44:21.254Z,99368.90
2019-03-26T01:46:48.103Z,99376.64
2019-03-26T01:49:14.945Z,99377.32
2019-03-26T01:51:41.782Z,99371.20
2019-03-26T01:54:08.531Z,99369.39
2019-03-26T01:56:35.362Z,99368.05
2019-03-26T01:59:02.102Z,99364.94
2019-03-26T02:01:28.956Z,99362.77
2019-03-26T02:03:55.797Z,99364.94
2019-03-26T02:06:22.641Z,99369.70
2019-03-26T02:08:49.370Z,99366.19
2019-03-26T02:11:16.216Z,99380.46
2019-03-26T02:13:43.069Z,99380.02
2019-03-26T02:16:09.975Z,99381.23
2019-03-26T02:18:36.740Z,99385.06
2019-03-26T02:21:03.586Z,99389.34
2019-03-26T02:23:30.329Z,99390.50
2019-03-26T02:25:57.065Z,99396.36
2019-03-26T02:28:23.801Z,99399.23
2019-03-26T02:30:50.545Z,99402.09
2019-03-26T02:33:17.297Z,99403.62
2019-03-26T02:35:44.138Z,99412.13
2019-03-26T02:38:10.869Z,99417.94
2019-03-26T02:40:37.719Z,99422.11
2019-03-26T02:43:04.454Z,99424.07
2019-03-26T02:45:31.292Z,99437.81
2019-03-26T02:47:58.037Z,99433.39
2019-03-26T02:50:24.882Z,99434.60
2019-03-26T02:52:51.784Z,99444.10
2019-03-26T02:55:18.666Z,99452.30
2019-03-26T02:57:45.402Z,99452.25
2019-03-26T03:00:12.148Z,99458.20
2019-03-26T03:02:38.994Z,99460.72
2019-03-26T03:05:05.726Z,99465.80
2019-03-26T03:07:32.581Z,99459.20
2019-03-26T03:09:59.308Z,99464.73
2019-03-26T03:12:26.049Z,99466.77
2019-03-26T03:14:52.801Z,99469.28
2019-03-26T03:17:19.539Z,99475.32
2019-03-26T03:19:46.381Z,99477.43
2019-03-26T03:22:13.113Z,99483.88
2019-03-26T03:24:39.852Z,99485.58
2019-03-26T03:27:06.597Z,99484.67
2019-03-26T03:29:33.439Z,99485.17
2019-03-26T03:32:00.194Z,99485.28
2019-03-26T03:34:27.131Z,99490.97
2019-03-26T03:36:53.973Z,99492.33
2019-03-26T03:39:20.814Z,99496.25
2019-03-26T03:41:47.646Z,99493.19
2019-03-26T03:44:14.406Z,99496.66
2019-03-26T03:46:41.177Z,99501.03
2019-03-26T03:49:07.976Z,99509.28
2019-03-26T03:51:34.716Z,99508.33
2019-03-26T03:54:01.456Z,99513.96
2019-03-26T03:56:28.308Z,99520.77
2019-03-26T03:58:55.141Z,99516.84
2019-03-26T04:01:21.986Z,99527.21
2019-03-26T04:03:48.829Z,99534.61
2019-03-26T04:06:15.664Z,99535.92
2019-03-26T04:08:42.407Z,99538.11
2019-03-26T04:11:09.171Z,99555.53
2019-03-26T04:13:35.991Z,99552.41
2019-03-26T04:16:02.847Z,99555.83
2019-03-26T04:18:29.674Z,99547.93
2019-03-26T04:20:56.410Z,99551.80
2019-03-26T04:23:23.156Z,99557.89
2019-03-26T04:25:49.898Z,99571.84
2019-03-26T04:28:16.739Z,99576.13
2019-03-26T04:30:43.472Z,99587.01
2019-03-26T04:33:10.219Z,99586.55
2019-03-26T04:35:36.962Z,99585.19
2019-03-26T04:38:03.820Z,99589.02
2019-03-26T04:40:30.532Z,99591.98
2019-03-26T04:42:57.274Z,99594.96
2019-03-26T04:45:24.019Z,99588.81
2019-03-26T04:47:50.860Z,99595.36
2019-03-26T04:50:17.706Z,99583.98
2019-03-26T04:52:44.539Z,99601.05
2019-03-26T04:55:11.309Z,99608.85
2019-03-26T04:57:38.132Z,99614.09
2019-03-26T05:00:04.872Z,99612.83
2019-03-26T05:02:31.712Z,99618.92
2019-03-26T05:04:58.453Z,99622.80
2019-03-26T05:07:25.393Z,99620.64
2019-03-26T05:09:52.135Z,99623.20
2019-03-26T05:12:18.983Z,99633.55
2019-03-26T05:14:45.825Z,99626.59
2019-03-26T05:17:12.659Z,99628.77
2019-03-26T05:19:39.400Z,99627.85
2019-03-26T05:22:06.241Z,99631.11
2019-03-26T05:24:32.982Z,99631.66
2019-03-26T05:26:59.831Z,99623.45
2019-03-26T05:29:26.568Z,99627.83
2019-03-26T05:31:53.417Z,99637.30
2019-03-26T05:34:20.146Z,99626.28
2019-03-26T05:36:51.497Z,99628.89
2019-03-26T05:39:15.367Z,99622.22
2019-03-26T05:41:42.117Z,99626.55
2019-03-26T05:44:08.850Z,99626.84
2019-03-26T05:46:35.694Z,99624.53
2019-03-26T05:49:02.434Z,99618.28
2019-03-26T05:51:29.179Z,99616.78
2019-03-26T05:53:55.911Z,99616.69
2019-03-26T05:56:22.653Z,99622.27
2019-03-26T05:58:49.409Z,99619.25
2019-03-26T06:01:16.239Z,99620.21
2019-03-26T06:03:42.973Z,99626.52
2019-03-26T06:06:09.722Z,99633.65
2019-03-26T06:08:36.584Z,99627.95
2019-03-26T06:11:03.398Z,99627.00
2019-03-26T06:13:30.254Z,99633.46
2019-03-26T06:15:57.058Z,99630.79
2019-03-26T06:18:23.834Z,99627.56
2019-03-26T06:20:50.573Z,99632.25
2019-03-26T06:23:17.414Z,99634.81
2019-03-26T06:25:44.180Z,99635.08
2019-03-26T06:28:11.113Z,99626.77
2019-03-26T06:30:37.979Z,99634.77
2019-03-26T06:33:04.782Z,99626.95
2019-03-26T06:35:31.521Z,99630.53
2019-03-26T06:37:58.370Z,99642.83
2019-03-26T06:40:25.110Z,99645.55
2019-03-26T06:42:51.947Z,99645.70
2019-03-26T06:45:18.780Z,99643.16
2019-03-26T06:47:45.527Z,99642.23
2019-03-26T06:50:12.265Z,99643.84
2019-03-26T06:52:39.114Z,99644.14
2019-03-26T06:55:05.960Z,99649.27
2019-03-26T06:57:35.820Z,99656.48
2019-03-26T07:00:01.181Z,99644.65
2019-03-26T07:02:27.915Z,99642.28
2019-03-26T07:04:54.763Z,99647.70
2019-03-26T07:07:30.821Z,99648.48
2019-03-26T07:09:49.984Z,99650.14
2019-03-26T07:12:16.827Z,99653.61
2019-03-26T07:14:43.661Z,99649.18
2019-03-26T07:17:10.400Z,99654.26
2019-03-26T07:19:37.202Z,99652.25
2019-03-26T07:22:03.994Z,99658.94
2019-03-26T07:24:30.826Z,99658.23
2019-03-26T07:26:57.565Z,99663.20
2019-03-26T07:29:24.308Z,99666.06
2019-03-26T07:31:51.158Z,99666.32
2019-03-26T07:34:17.959Z,99666.05
2019-03-26T07:36:44.633Z,99672.58
2019-03-26T07:39:11.366Z,99666.79
2019-03-26T07:41:38.121Z,99665.44
2019-03-26T07:44:04.963Z,99666.80
2019-03-26T07:46:31.692Z,99666.36
2019-03-26T07:48:58.544Z,99661.73
2019-03-26T07:51:25.274Z,99661.42
2019-03-26T07:53:52.127Z,99656.25
2019-03-26T07:56:18.858Z,99668.49
2019-03-26T07:58:45.704Z,99667.25
2019-03-26T08:01:12.442Z,99666.11
2019-03-26T08:03:39.402Z,99676.37
2019-03-26T08:06:06.123Z,99667.56
2019-03-26T08:08:32.971Z,99674.66
2019-03-26T08:10:59.818Z,99677.48
2019-03-26T08:13:26.741Z,99676.52
2019-03-26T08:15:53.424Z,99678.48
2019-03-26T08:18:20.130Z,99678.88
2019-03-26T08:20:46.880Z,99681.22
2019-03-26T08:23:13.620Z,99685.95
2019-03-26T08:25:40.468Z,99685.16
2019-03-26T08:28:07.203Z,99678.60
2019-03-26T08:30:34.042Z,99678.52
2019-03-26T08:33:00.780Z,99673.09
2019-03-26T08:35:27.628Z,99677.59
2019-03-26T08:37:54.473Z,99680.05
2019-03-26T08:40:23.401Z,99686.23
2019-03-26T08:42:49.683Z,99684.92
2019-03-26T08:45:16.546Z,99686.40
2019-03-26T08:47:43.377Z,99683.84
2019-03-26T08:50:10.216Z,99680.75
2019-03-26T08:52:37.060Z,99683.21
2019-03-26T08:55:04.420Z,99681.89
2019-03-26T08:57:31.210Z,99684.43
2019-03-26T08:59:57.988Z,99681.41
2019-03-26T09:02:24.737Z,99682.39
2019-03-26T09:04:51.578Z,99678.19
2019-03-26T09:07:18.425Z,99670.09
2019-03-26T09:09:45.172Z,99672.27
2019-03-26T09:12:12.004Z,99660.23
2019-03-26T09:14:38.751Z,99669.38
2019-03-26T09:17:05.588Z,99663.20
2019-03-26T09:19:32.423Z,99663.53
2019-03-26T09:21:59.164Z,99659.80
2019-03-26T09:24:26.008Z,99661.62
2019-03-26T09:26:52.746Z,99656.72
2019-03-26T09:29:19.484Z,99659.73
2019-03-26T09:31:46.279Z,99659.42
2019-03-26T09:34:13.081Z,99662.02
2019-03-26T09:36:39.922Z,99661.56
2019-03-26T09:39:06.756Z,99657.28
2019-03-26T09:41:33.496Z,99654.53
2019-03-26T09:44:00.347Z,99659.00
2019-03-26T09:46:27.078Z,99649.66
2019-03-26T09:48:53.932Z,99639.89
2019-03-26T09:51:20.661Z,99641.87
2019-03-26T09:53:47.401Z,99633.50
2019-03-26T09:56:27.478Z,99646.11
2019-03-26T09:58:42.733Z,99647.81
2019-03-26T10:01:09.569Z,99647.53
2019-03-26T10:03:36.311Z,99653.50
2019-03-26T10:06:03.158Z,99656.48
2019-03-26T10:08:29.887Z,99655.00
2019-03-26T10:10:56.636Z,99653.50
2019-03-26T10:13:23.482Z,99642.00
2019-03-26T10:15:50.323Z,99644.56
2019-03-26T10:18:17.057Z,99636.44
2019-03-26T10:20:43.797Z,99654.22
2019-03-26T10:23:10.647Z,99637.10
2019-03-26T10:25:37.483Z,99629.86
2019-03-26T10:28:04.330Z,99633.07
2019-03-26T10:30:31.064Z,99630.15
2019-03-26T10:32:57.804Z,99634.19
2019-03-26T10:35:24.547Z,99631.84
2019-03-26T10:37:51.290Z,99629.93
2019-03-26T10:40:18.022Z,99620.45
2019-03-26T10:42:44.766Z,99616.97
2019-03-26T10:45:11.612Z,99615.59
2019-03-26T10:47:38.401Z,99614.05
2019-03-26T10:50:05.194Z,99615.62
2019-03-26T10:52:34.341Z,99621.51
2019-03-26T10:55:00.365Z,99614.34
2019-03-26T10:57:27.070Z,99612.30
2019-03-26T10:59:53.680Z,99609.34
2019-03-26T11:02:20.255Z,99620.79
2019-03-26T11:04:46.858Z,99618.18
2019-03-26T11:07:13.437Z,99609.10
2019-03-26T11:09:40.005Z,99598.72
2019-03-26T11:12:06.585Z,99592.45
2019-03-26T11:14:33.162Z,99600.42
2019-03-26T11:16:59.738Z,99603.30
2019-03-26T11:19:26.323Z,99605.06
2019-03-26T11:21:52.927Z,99607.46
2019-03-26T11:24:19.480Z,99608.59
2019-03-26T11:26:46.101Z,99605.67
2019-03-26T11:29:12.675Z,99601.75
2019-03-26T11:31:39.277Z,99609.52
2019-03-26T11:34:05.855Z,99600.17
2019-03-26T11:36:32.459Z,99592.89
2019-03-26T11:38:59.031Z,99589.48
2019-03-26T11:41:25.638Z,99595.48
2019-03-26T11:43:52.219Z,99593.91
2019-03-26T11:46:18.834Z,99594.42
2019-03-26T11:48:45.401Z,99583.89
2019-03-26T11:51:12.027Z,99591.94
2019-03-26T11:53:38.675Z,99579.94
2019-03-26T11:56:05.310Z,99580.13
2019-03-26T11:58:31.887Z,99580.06
2019-03-26T12:00:58.498Z,99578.89
2019-03-26T12:03:25.077Z,99576.52
2019-03-26T12:05:51.687Z,99576.97
2019-03-26T12:08:18.265Z,99585.51
2019-03-26T12:10:44.875Z,99569.76
2019-03-26T12:13:11.452Z,99565.16
2019-03-26T12:15:38.105Z,99559.04
2019-03-26T12:18:04.692Z,99569.69
2019-03-26T12:20:31.302Z,99569.42
2019-03-26T12:22:57.874Z,99561.92
2019-03-26T12:25:24.475Z,99548.71
2019-03-26T12:27:51.047Z,99546.47
2019-03-26T12:30:17.620Z,99554.38
2019-03-26T12:32:44.194Z,99550.66
2019-03-26T12:35:10.771Z,99538.47
2019-03-26T12:37:37.349Z,99556.77
2019-03-26T12:40:03.931Z,99557.41
2019-03-26T12:42:30.505Z,99549.27
2019-03-26T12:44:57.070Z,99551.91
2019-03-26T12:47:23.665Z,99554.44
2019-03-26T12:49:50.238Z,99549.87
2019-03-26T12:52:16.818Z,99531.13
2019-03-26T12:54:43.386Z,99524.34
2019-03-26T12:57:09.959Z,99518.00
2019-03-26T12:59:36.534Z,99522.57
2019-03-26T13:02:03.114Z,99509.36
2019-03-26T13:04:29.702Z,99510.25
2019-03-26T13:06:56.308Z,99499.91
2019-03-26T13:09:22.882Z,99499.23
2019-03-26T13:11:49.492Z,99497.04
2019-03-26T13:14:16.066Z,99483.19
2019-03-26T13:16:42.666Z,99494.55
2019-03-26T13:19:09.248Z,99486.16
2019-03-26T13:21:37.511Z,99492.83
2019-03-26T13:24:04.163Z,99503.16
2019-03-26T13:26:30.774Z,99482.18
2019-03-26T13:28:57.343Z,99480.78
2019-03-26T13:31:23.938Z,99470.23
2019-03-26T13:33:50.518Z,99461.87
2019-03-26T13:36:17.122Z,99458.15
2019-03-26T13:38:43.702Z,99471.49
2019-03-26T13:41:10.293Z,99459.77
2019-03-26T13:43:36.871Z,99468.52
2019-03-26T13:46:03.437Z,99461.70
2019-03-26T13:48:30.015Z,99462.54
2019-03-26T13:50:56.584Z,99447.33
2019-03-26T13:53:23.157Z,99440.08
2019-03-26T13:55:49.731Z,99441.69
2019-03-26T13:58:16.300Z,99427.52
2019-03-26T14:00:42.915Z,99418.52
2019-03-26T14:03:09.488Z,99407.23
2019-03-26T14:05:36.065Z,99407.67
2019-03-26T14:08:02.647Z,99410.70
2019-03-26T14:10:40.178Z,99408.63
2019-03-26T14:12:57.525Z,99403.03
2019-03-26T14:15:24.100Z,99418.92
2019-03-26T14:17:50.694Z,99401.59
2019-03-26T14:20:17.260Z,99401.78
2019-03-26T14:22:43.872Z,99405.81
2019-03-26T14:25:10.445Z,99410.87
2019-03-26T14:27:37.065Z,99410.95
2019-03-26T14:30:03.645Z,99400.92
2019-03-26T14:32:30.248Z,99400.23
2019-03-26T14:34:56.841Z,99402.85
2019-03-26T14:37:23.492Z,99410.14
2019-03-26T14:39:50.070Z,99389.31
2019-03-26T14:42:17.954Z,99392.04
2019-03-26T14:44:44.532Z,99387.26
2019-03-26T14:47:11.122Z,99397.73
2019-03-26T14:49:37.699Z,99400.63
2019-03-26T14:52:04.306Z,99392.41
2019-03-26T14:54:31.165Z,99376.05
2019-03-26T14:56:57.818Z,99375.40
2019-03-26T14:59:24.470Z,99386.00
2019-03-26T15:01:51.067Z,99374.99
2019-03-26T15:04:17.648Z,99372.48
2019-03-26T15:06:44.260Z,99366.88
2019-03-26T15:09:10.835Z,99373.47
2019-03-26T15:11:37.414Z,99373.02
2019-03-26T15:14:05.197Z,99369.25
2019-03-26T15:16:31.741Z,99376.10
2019-03-26T15:18:58.318Z,99362.91
2019-03-26T15:21:24.891Z,99357.43
2019-03-26T15:23:51.479Z,99354.98
2019-03-26T15:26:18.061Z,99348.55
2019-03-26T15:28:44.633Z,99351.95
2019-03-26T15:31:11.201Z,99372.50
2019-03-26T15:33:37.790Z,99354.95
2019-03-26T15:36:04.432Z,99350.33
2019-03-26T15:38:31.013Z,99357.21
2019-03-26T15:40:57.587Z,99358.83
2019-03-26T15:43:24.192Z,99360.05
2019-03-26T15:45:50.767Z,99355.56
2019-03-26T15:48:17.361Z,99359.25
2019-03-26T15:50:43.924Z,99374.97
2019-03-26T15:53:10.538Z,99359.14
2019-03-26T15:55:37.110Z,99385.23
2019-03-26T15:58:03.707Z,99380.12
2019-03-26T16:00:30.277Z,99397.77
2019-03-26T16:02:56.892Z,99390.80
2019-03-26T16:05:23.467Z,99403.42
2019-03-26T16:07:50.092Z,99408.75
2019-03-26T16:10:16.681Z,99417.84
2019-03-26T16:12:43.257Z,99423.48
2019-03-26T16:15:09.843Z,99423.42
2019-03-26T16:17:36.412Z,99429.59
2019-03-26T16:20:02.995Z,99438.10
2019-03-26T16:22:29.596Z,99437.78
2019-03-26T16:24:56.199Z,99435.13
2019-03-26T16:27:22.789Z,99434.48
2019-03-26T16:29:49.367Z,99444.20
2019-03-26T16:32:15.946Z,99439.93
2019-03-26T16:34:42.509Z,99448.62
2019-03-26T16:37:09.152Z,99433.91
2019-03-26T16:39:35.797Z,99444.66
2019-03-26T16:42:02.412Z,99455.34
2019-03-26T16:44:28.994Z,99448.45
2019-03-26T16:46:55.576Z,99449.56
2019-03-26T16:49:22.167Z,99459.39
2019-03-26T16:51:48.745Z,99460.51
2019-03-26T16:54:15.308Z,99459.39
2019-03-26T16:56:41.879Z,99477.55
2019-03-26T16:59:08.450Z,99472.03
2019-03-26T17:01:35.027Z,99458.64
2019-03-26T17:04:02.850Z,99458.77
2019-03-26T17:06:29.771Z,99460.37
2019-03-26T17:08:56.398Z,99459.31
2019-03-26T17:11:23.308Z,99457.73
2019-03-26T17:13:49.999Z,99455.34
2019-03-26T17:16:16.564Z,99456.26
2019-03-26T17:18:43.152Z,99465.05
2019-03-26T17:21:09.722Z,99459.86
2019-03-26T17:23:36.298Z,99453.83
2019-03-26T17:26:02.861Z,99470.48
2019-03-26T17:28:29.446Z,99459.59
2019-03-26T17:30:56.020Z,99465.30
2019-03-26T17:33:22.606Z,99467.59
2019-03-26T17:35:49.179Z,99470.28
2019-03-26T17:38:15.789Z,99457.78
2019-03-26T17:40:42.364Z,99442.89
2019-03-26T17:43:08.968Z,99459.94
2019-03-26T17:45:35.549Z,99466.56
2019-03-26T17:48:02.144Z,99480.60
2019-03-26T17:50:28.791Z,99483.22
2019-03-26T17:52:55.452Z,99480.66
2019-03-26T17:55:22.029Z,99492.93
2019-03-26T17:57:48.592Z,99479.88
2019-03-26T18:00:15.172Z,99490.95
2019-03-26T18:02:41.752Z,99509.31
2019-03-26T18:05:08.326Z,99490.03
2019-03-26T18:07:34.894Z,99491.47
2019-03-26T18:10:01.515Z,99496.31
2019-03-26T18:12:30.976Z,99490.28
2019-03-26T18:14:56.431Z,99496.08
2019-03-26T18:17:23.001Z,99497.91
2019-03-26T18:19:49.613Z,99491.07
2019-03-26T18:22:16.183Z,99486.73
2019-03-26T18:24:42.804Z,99489.48
2019-03-26T18:27:09.371Z,99499.24
2019-03-26T18:29:35.967Z,99498.94
2019-03-26T18:32:02.538Z,99500.30
2019-03-26T18:34:29.150Z,99510.92
2019-03-26T18:36:55.713Z,99505.61
2019-03-26T18:39:22.323Z,99492.56
2019-03-26T18:41:48.896Z,99495.58
2019-03-26T18:44:15.492Z,99487.38
2019-03-26T18:46:42.060Z,99489.08
2019-03-26T18:49:08.651Z,99493.66
2019-03-26T18:51:35.248Z,99484.88
2019-03-26T18:54:01.859Z,99469.53
2019-03-26T18:56:28.442Z,99488.86
2019-03-26T18:58:55.060Z,99484.14
2019-03-26T19:01:21.629Z,99487.31
2019-03-26T19:03:48.242Z,99492.16
2019-03-26T19:06:14.826Z,99493.47
2019-03-26T19:08:41.442Z,99496.55
2019-03-26T19:11:08.013Z,99501.33
2019-03-26T19:13:34.625Z,99505.66
2019-03-26T19:16:01.201Z,99504.66
2019-03-26T19:18:27.858Z,99516.39
2019-03-26T19:21:01.964Z,99526.43
2019-03-26T19:23:22.722Z,99524.20
2019-03-26T19:25:49.304Z,99586.11
2019-03-26T19:28:15.907Z,99591.88
2019-03-26T19:30:42.552Z,99588.31
2019-03-26T19:33:09.119Z,99624.91
2019-03-26T19:35:35.778Z,99611.80
2019-03-26T19:38:02.352Z,99620.52
2019-03-26T19:40:28.933Z,99627.45
2019-03-26T19:42:55.502Z,99637.27
2019-03-26T19:45:22.093Z,99637.85
2019-03-26T19:47:48.654Z,99639.09
2019-03-26T19:50:15.230Z,99652.12
2019-03-26T19:52:41.820Z,99648.50
2019-03-26T19:55:08.399Z,99650.94
2019-03-26T19:57:34.969Z,99651.69
2019-03-26T20:00:01.557Z,99655.90
2019-03-26T20:02:28.125Z,99647.88
2019-03-26T20:04:54.679Z,99652.04
2019-03-26T20:07:21.278Z,99662.70
2019-03-26T20:09:47.859Z,99666.83
2019-03-26T20:12:14.420Z,99663.52
2019-03-26T20:14:40.997Z,99666.70
2019-03-26T20:17:07.577Z,99674.20
2019-03-26T20:19:34.157Z,99689.14
2019-03-26T20:22:00.726Z,99694.44
2019-03-26T20:24:27.296Z,99701.05
2019-03-26T20:26:53.872Z,99706.80
2019-03-26T20:29:20.441Z,99715.53
2019-03-26T20:31:47.018Z,99711.23
2019-03-26T20:34:13.599Z,99706.02
2019-03-26T20:36:40.171Z,99711.69
2019-03-26T20:39:06.747Z,99714.38
2019-03-26T20:41:33.322Z,99718.73
2019-03-26T20:43:59.931Z,99712.62
2019-03-26T20:46:26.545Z,99714.78
2019-03-26T20:48:53.117Z,99720.75
2019-03-26T20:51:19.704Z,99718.55
2019-03-26T20:53:46.309Z,99726.76
2019-03-26T20:56:12.920Z,99725.91
2019-03-26T20:58:39.489Z,99724.14
2019-03-26T21:01:06.120Z,99722.02
2019-03-26T21:03:32.704Z,99736.42
2019-03-26T21:05:59.286Z,99736.16
2019-03-26T21:08:25.869Z,99750.27
2019-03-26T21:10:52.472Z,99755.19
2019-03-26T21:13:19.053Z,99743.58
2019-03-26T21:15:56.533Z,99738.46
2019-03-26T21:18:13.953Z,99747.70
2019-03-26T21:20:40.543Z,99760.38
2019-03-26T21:23:07.125Z,99770.03
2019-03-26T21:25:33.737Z,99784.39
2019-03-26T21:28:00.304Z,99787.48
2019-03-26T21:30:26.912Z,99781.50
2019-03-26T21:32:53.505Z,99791.19
2019-03-26T21:35:20.096Z,99786.95
2019-03-26T21:37:46.665Z,99788.33
2019-03-26T21:40:13.276Z,99796.77
2019-03-26T21:42:39.850Z,99804.28
2019-03-26T21:45:06.454Z,99804.38
2019-03-26T21:47:33.022Z,99812.70
2019-03-26T21:49:59.620Z,99811.05
2019-03-26T21:52:26.194Z,99804.63
2019-03-26T21:54:52.817Z,99805.55
2019-03-26T21:57:19.388Z,99815.56
2019-03-26T21:59:45.977Z,99818.62
2019-03-26T22:02:12.555Z,99822.09
2019-03-26T22:04:39.138Z,99819.48
2019-03-26T22:07:05.715Z,99825.55
2019-03-26T22:09:32.284Z,99826.86
2019-03-26T22:11:58.863Z,99826.86
2019-03-26T22:14:25.431Z,99829.52
2019-03-26T22:16:52.023Z,99828.28
2019-03-26T22:19:28.589Z,99840.91
2019-03-26T22:21:46.869Z,99835.72
2019-03-26T22:24:13.435Z,99839.63
2019-03-26T22:26:40.013Z,99848.73
2019-03-26T22:29:06.580Z,99839.13
2019-03-26T22:31:33.151Z,99839.95
2019-03-26T22:33:59.719Z,99843.88
2019-03-26T22:36:26.287Z,99848.61
2019-03-26T22:38:52.857Z,99841.62
2019-03-26T22:41:19.441Z,99849.00
2019-03-26T22:43:46.026Z,99855.48
2019-03-26T22:46:12.578Z,99851.61
2019-03-26T22:48:39.152Z,99849.00
2019-03-26T22:51:05.725Z,99857.30
2019-03-26T22:53:32.295Z,99850.36
2019-03-26T22:55:58.876Z,99853.00
2019-03-26T22:58:25.447Z,99866.06
2019-03-26T23:00:52.022Z,99868.27
2019-03-26T23:03:18.585Z,99878.28
2019-03-26T23:05:45.193Z,99878.34
2019-03-26T23:08:11.759Z,99882.34
2019-03-26T23:10:38.364Z,99885.86
2019-03-26T23:13:04.965Z,99892.84
2019-03-26T23:15:31.538Z,99894.20
2019-03-26T23:17:58.184Z,99894.68
2019-03-26T23:20:24.762Z,99896.04
2019-03-26T23:22:51.340Z,99893.94
2019-03-26T23:25:17.915Z,99901.34
2019-03-26T23:27:44.495Z,99911.82
2019-03-26T23:30:11.064Z,99917.09
2019-03-26T23:32:37.646Z,99915.39
2019-03-26T23:35:04.220Z,99920.62
2019-03-26T23:37:30.814Z,99913.28
2019-03-26T23:39:57.391Z,99919.80
2019-03-26T23:42:24.006Z,99919.82
2019-03-26T23:44:58.175Z,99918.16
2019-03-26T23:47:19.882Z,99920.77
2019-03-26T23:49:46.454Z,99919.05
2019-03-26T23:52:13.047Z,99919.52
2019-03-26T23:54:39.605Z,99916.07
2019-03-26T23:57:06.389Z,99917.87
2019-03-26T23:59:32.951Z,99920.52
